createdAt,value
2023-12-12T00:02:03.700Z,16.23
2023-12-12T00:05:45.614Z,13.25
2023-12-12T00:09:27.438Z,14.10
2023-12-12T00:13:09.331Z,13.75
2023-12-12T00:16:52.743Z,11.70
2023-12-12T00:20:34.614Z,15.45
2023-12-12T00:24:16.486Z,18.48
2023-12-12T00:27:58.393Z,13.63
2023-12-12T00:31:40.249Z,14.90
2023-12-12T00:35:22.226Z,11.98
2023-12-12T00:39:05.194Z,17.25
2023-12-12T00:42:47.073Z,21.45
2023-12-12T00:46:28.995Z,18.70
2023-12-12T00:50:11.110Z,22.17
2023-12-12T00:53:52.924Z,18.95
2023-12-12T00:57:34.945Z,15.85
2023-12-12T01:01:17.203Z,11.02
2023-12-12T01:04:59.151Z,13.55
2023-12-12T01:08:41.011Z,14.95
2023-12-12T01:12:22.856Z,13.95
2023-12-12T01:16:05.053Z,16.02
2023-12-12T01:19:46.993Z,15.02
2023-12-12T01:23:28.824Z,12.88
2023-12-12T01:27:10.701Z,9.07
2023-12-12T01:30:53.477Z,13.52
2023-12-12T01:34:35.638Z,11.95
2023-12-12T01:38:17.498Z,13.45
2023-12-12T01:41:59.344Z,11.10
2023-12-12T01:45:44.265Z,15.93
2023-12-12T01:49:26.357Z,8.32
2023-12-12T01:53:08.656Z,4.75
2023-12-12T01:56:55.112Z,5.10
2023-12-12T02:00:37.662Z,2.33
2023-12-12T02:04:20.083Z,1.73
2023-12-12T02:08:02.005Z,2.53
2023-12-12T02:11:44.068Z,0.90
2023-12-12T02:15:26.453Z,0.93
2023-12-12T02:19:08.440Z,0.98
2023-12-12T02:22:50.369Z,1.35
2023-12-12T02:26:32.253Z,2.10
2023-12-12T02:30:15.564Z,1.55
2023-12-12T02:33:57.419Z,2.28
2023-12-12T02:37:39.294Z,1.85
2023-12-12T02:41:21.173Z,2.08
2023-12-12T02:45:03.652Z,2.63
2023-12-12T02:48:45.554Z,2.13
2023-12-12T02:52:27.543Z,2.10
2023-12-12T02:56:09.524Z,2.42
2023-12-12T02:59:51.356Z,2.70
2023-12-12T03:03:33.422Z,0.75
2023-12-12T03:07:16.712Z,0.47
2023-12-12T03:10:58.626Z,2.10
2023-12-12T03:14:40.558Z,1.85
2023-12-12T03:18:22.491Z,2.20
2023-12-12T03:22:04.679Z,2.78
2023-12-12T03:25:46.499Z,1.35
2023-12-12T03:29:31.500Z,3.92
2023-12-12T03:33:14.654Z,1.73
2023-12-12T03:36:56.609Z,1.20
2023-12-12T03:40:38.631Z,0.30
2023-12-12T03:44:20.473Z,0.65
2023-12-12T03:48:02.459Z,3.95
2023-12-12T03:51:44.291Z,3.50
2023-12-12T03:55:26.456Z,1.63
2023-12-12T03:59:08.282Z,2.22
2023-12-12T04:02:50.172Z,5.82
2023-12-12T04:06:32.195Z,2.83
2023-12-12T04:10:14.261Z,3.63
2023-12-12T04:13:56.087Z,2.17
2023-12-12T04:17:37.947Z,2.50
2023-12-12T04:21:19.760Z,2.25
2023-12-12T04:25:01.762Z,1.02
2023-12-12T04:28:43.616Z,2.30
2023-12-12T04:32:25.462Z,2.72
2023-12-12T04:36:07.619Z,5.03
2023-12-12T04:39:49.497Z,3.95
2023-12-12T04:43:31.599Z,4.70
2023-12-12T04:47:14.525Z,5.28
2023-12-12T04:50:56.463Z,2.58
2023-12-12T04:54:38.516Z,15.48
2023-12-12T04:58:20.347Z,5.13
2023-12-12T05:02:02.326Z,3.70
2023-12-12T05:05:46.182Z,17.65
2023-12-12T05:09:28.067Z,3.08
2023-12-12T05:13:09.932Z,6.07
2023-12-12T05:17:00.898Z,9.00
2023-12-12T05:20:49.745Z,4.95
2023-12-12T05:24:31.636Z,10.50
2023-12-12T05:28:13.859Z,10.55
2023-12-12T05:31:55.788Z,10.75
2023-12-12T05:35:37.620Z,12.73
2023-12-12T05:39:19.461Z,12.18
2023-12-12T05:43:01.606Z,16.50
2023-12-12T05:46:43.689Z,11.38
2023-12-12T05:50:25.597Z,12.80
2023-12-12T05:54:13.497Z,12.02
2023-12-12T05:57:55.629Z,15.13
2023-12-12T06:01:37.582Z,22.45
2023-12-12T06:05:20.300Z,14.68
2023-12-12T06:09:03.251Z,16.50
2023-12-12T06:12:45.996Z,17.92
2023-12-12T06:16:28.615Z,11.63
2023-12-12T06:20:11.022Z,15.80
2023-12-12T06:23:53.013Z,15.23
2023-12-12T06:27:35.152Z,15.55
2023-12-12T06:31:17.264Z,13.18
2023-12-12T06:35:01.005Z,17.85
2023-12-12T06:38:46.067Z,15.73
2023-12-12T06:42:27.857Z,23.05
2023-12-12T06:46:09.994Z,19.02
2023-12-12T06:49:51.873Z,18.35
2023-12-12T06:53:34.024Z,16.55
2023-12-12T06:57:15.812Z,19.52
2023-12-12T07:00:57.788Z,17.60
2023-12-12T07:04:39.788Z,18.10
2023-12-12T07:08:22.404Z,16.25
2023-12-12T07:16:06.293Z,23.77
2023-12-12T07:19:48.317Z,24.95
2023-12-12T07:23:30.600Z,20.17
2023-12-12T07:27:12.456Z,22.23
2023-12-12T07:30:54.777Z,25.58
2023-12-12T07:34:36.844Z,19.40
2023-12-12T07:38:18.756Z,32.63
2023-12-12T07:42:00.631Z,23.63
2023-12-12T07:45:42.529Z,31.80
2023-12-12T07:49:25.011Z,23.88
2023-12-12T07:53:08.080Z,24.17
2023-12-12T07:56:50.054Z,29.30
2023-12-12T08:00:31.918Z,23.23
2023-12-12T08:04:13.876Z,25.90
2023-12-12T08:07:55.872Z,29.52
2023-12-12T08:11:37.667Z,22.42
2023-12-12T08:15:21.230Z,29.02
2023-12-12T08:19:03.141Z,31.98
2023-12-12T08:22:45.062Z,27.73
2023-12-12T08:26:26.845Z,26.52
2023-12-12T08:30:09.515Z,25.27
2023-12-12T08:33:51.496Z,21.15
2023-12-12T08:37:33.797Z,27.35
2023-12-12T08:41:15.827Z,29.63
2023-12-12T08:44:57.754Z,25.90
2023-12-12T08:48:39.937Z,28.15
2023-12-12T08:52:21.801Z,27.70
2023-12-12T08:56:05.482Z,27.33
2023-12-12T08:59:47.337Z,26.05
2023-12-12T09:03:29.408Z,23.95
2023-12-12T09:07:11.374Z,25.13
2023-12-12T09:10:53.587Z,26.02
2023-12-12T09:14:35.820Z,22.33
2023-12-12T09:18:20.256Z,30.95
2023-12-12T09:22:02.858Z,22.92
2023-12-12T09:25:44.809Z,23.98
2023-12-12T09:29:27.092Z,15.50
2023-12-12T09:33:08.945Z,20.00
2023-12-12T09:36:52.000Z,21.98
2023-12-12T09:40:38.107Z,27.42
2023-12-12T09:44:20.358Z,25.63
2023-12-12T09:48:02.512Z,24.85
2023-12-12T09:51:45.136Z,22.30
2023-12-12T09:55:29.430Z,27.63
2023-12-12T09:59:11.445Z,26.33
2023-12-12T10:02:58.442Z,22.48
2023-12-12T10:06:43.645Z,26.23
2023-12-12T10:10:25.553Z,22.63
2023-12-12T10:14:07.741Z,23.65
2023-12-12T10:17:49.606Z,25.55
2023-12-12T10:21:31.873Z,25.08
2023-12-12T10:25:17.087Z,26.75
2023-12-12T10:29:00.922Z,23.63
2023-12-12T10:32:42.877Z,24.73
2023-12-12T10:36:25.949Z,26.20
2023-12-12T10:40:14.697Z,23.10
2023-12-12T10:43:57.443Z,16.77
2023-12-12T10:47:42.923Z,31.73
2023-12-12T10:51:26.228Z,29.70
2023-12-12T10:55:14.465Z,17.45
2023-12-12T10:58:56.780Z,23.25
2023-12-12T11:02:59.982Z,17.30
2023-12-12T11:06:44.348Z,23.48
2023-12-12T11:10:26.501Z,19.33
2023-12-12T11:14:11.117Z,20.05
2023-12-12T11:17:53.558Z,16.45
2023-12-12T11:21:46.737Z,24.23
2023-12-12T11:25:30.463Z,22.45
2023-12-12T11:29:15.216Z,29.45
2023-12-12T11:32:58.444Z,21.33
2023-12-12T11:37:00.839Z,13.45
2023-12-12T11:40:42.806Z,18.75
2023-12-12T11:44:25.082Z,16.70
2023-12-12T11:48:09.403Z,20.20
2023-12-12T11:51:51.924Z,13.95
2023-12-12T11:55:34.497Z,9.88
2023-12-12T11:59:23.313Z,11.40
2023-12-12T12:03:06.998Z,10.93
2023-12-12T12:06:54.217Z,11.40
2023-12-12T12:14:25.499Z,7.55
2023-12-12T12:18:26.236Z,10.45
2023-12-12T12:22:09.589Z,4.13
2023-12-12T12:25:51.810Z,5.30
2023-12-12T12:29:33.745Z,3.67
2023-12-12T12:33:15.707Z,6.63
2023-12-12T12:37:02.019Z,7.28
2023-12-12T12:40:44.259Z,8.50
2023-12-12T12:44:34.290Z,7.72
2023-12-12T12:48:19.985Z,4.32
2023-12-12T12:52:02.870Z,7.15
2023-12-12T12:55:45.134Z,5.70
2023-12-12T12:59:27.532Z,3.67
2023-12-12T13:03:09.334Z,9.40
2023-12-12T13:06:51.191Z,8.90
2023-12-12T13:10:43.024Z,5.72
2023-12-12T13:14:29.674Z,6.28
2023-12-12T13:18:11.643Z,7.82
2023-12-12T13:21:56.822Z,7.45
2023-12-12T13:25:38.832Z,7.43
2023-12-12T13:29:20.855Z,7.10
2023-12-12T13:33:05.289Z,8.23
2023-12-12T13:36:47.223Z,11.43
2023-12-12T13:40:29.968Z,6.13
2023-12-12T13:44:11.938Z,4.07
2023-12-12T13:47:53.978Z,8.73
2023-12-12T13:51:44.120Z,9.75
2023-12-12T13:55:29.640Z,11.10
2023-12-12T13:59:12.592Z,4.13
2023-12-12T14:02:54.651Z,10.20
2023-12-12T14:06:36.525Z,5.70
2023-12-12T14:10:19.016Z,5.82
2023-12-12T14:14:01.064Z,5.10
2023-12-12T14:17:43.124Z,9.32
2023-12-12T14:21:25.029Z,8.52
2023-12-12T14:25:08.785Z,5.10
2023-12-12T14:28:51.386Z,7.80
2023-12-12T14:32:34.028Z,12.55
2023-12-12T14:36:16.252Z,9.65
2023-12-12T14:39:58.050Z,5.55
2023-12-12T14:43:47.552Z,6.20
2023-12-12T14:47:29.547Z,5.53
2023-12-12T14:51:12.894Z,9.45
2023-12-12T14:54:56.183Z,8.52
2023-12-12T14:58:38.111Z,12.57
2023-12-12T15:02:20.120Z,3.97
2023-12-12T15:06:04.055Z,5.80
2023-12-12T15:09:45.972Z,8.18
2023-12-12T15:13:28.295Z,7.32
2023-12-12T15:17:10.129Z,7.15
2023-12-12T15:20:51.987Z,5.13
2023-12-12T15:24:33.871Z,8.88
2023-12-12T15:28:25.141Z,4.32
2023-12-12T15:32:12.994Z,7.07
2023-12-12T15:35:54.973Z,9.82
2023-12-12T15:39:38.507Z,9.55
2023-12-12T15:43:20.833Z,7.05
2023-12-12T15:47:03.006Z,9.35
2023-12-12T15:50:45.108Z,7.82
2023-12-12T15:54:27.073Z,6.10
2023-12-12T15:58:10.816Z,4.47
2023-12-12T16:01:52.892Z,7.57
2023-12-12T16:05:36.637Z,8.98
2023-12-12T16:09:19.019Z,7.53
2023-12-12T16:13:00.978Z,7.25
2023-12-12T16:16:43.776Z,5.50
2023-12-12T16:20:27.064Z,5.82
2023-12-12T16:24:09.436Z,6.53
2023-12-12T16:27:53.045Z,9.02
2023-12-12T16:31:35.447Z,10.15
2023-12-12T16:35:17.335Z,7.03
2023-12-12T16:39:01.382Z,6.18
2023-12-12T16:42:44.108Z,4.63
2023-12-12T16:46:26.010Z,6.07
2023-12-12T16:50:08.288Z,7.10
2023-12-12T16:53:50.604Z,5.32
2023-12-12T16:57:33.475Z,5.13
2023-12-12T17:01:15.617Z,7.82
2023-12-12T17:04:58.647Z,4.60
2023-12-12T17:08:40.886Z,6.35
2023-12-12T17:12:23.522Z,6.13
2023-12-12T17:16:05.983Z,6.20
2023-12-12T17:19:48.019Z,5.32
2023-12-12T17:23:30.039Z,9.00
2023-12-12T17:27:12.213Z,9.90
2023-12-12T17:30:54.062Z,8.77
2023-12-12T17:34:36.686Z,5.55
2023-12-12T17:38:18.596Z,4.93
2023-12-12T17:42:04.034Z,7.93
2023-12-12T17:45:48.462Z,5.72
2023-12-12T17:49:30.478Z,5.40
2023-12-12T17:53:15.249Z,5.20
2023-12-12T17:56:57.210Z,6.70
2023-12-12T18:00:39.107Z,3.75
2023-12-12T18:04:21.572Z,5.35
2023-12-12T18:08:05.024Z,7.55
2023-12-12T18:11:46.869Z,7.05
2023-12-12T18:15:28.655Z,2.55
2023-12-12T18:19:10.553Z,6.25
2023-12-12T18:22:56.910Z,4.55
2023-12-12T18:26:40.535Z,5.37
2023-12-12T18:30:27.968Z,4.40
2023-12-12T18:34:09.984Z,4.05
2023-12-12T18:37:51.996Z,5.13
2023-12-12T18:41:35.440Z,3.50
2023-12-12T18:45:17.380Z,3.28
2023-12-12T18:48:59.209Z,3.33
2023-12-12T18:52:42.002Z,3.92
2023-12-12T18:56:24.781Z,9.10
2023-12-12T19:00:11.686Z,5.68
2023-12-12T19:03:53.881Z,2.63
2023-12-12T19:07:36.520Z,6.00
2023-12-12T19:11:23.214Z,5.82
2023-12-12T19:15:06.959Z,4.40
2023-12-12T19:18:49.316Z,4.43
2023-12-12T19:22:32.991Z,2.33
2023-12-12T19:26:14.807Z,4.55
2023-12-12T19:29:59.186Z,5.22
2023-12-12T19:33:41.034Z,6.88
2023-12-12T19:37:24.037Z,6.03
2023-12-12T19:41:08.312Z,4.45
2023-12-12T19:44:50.077Z,9.35
2023-12-12T19:48:32.242Z,6.05
2023-12-12T19:52:14.583Z,4.63
2023-12-12T19:55:56.488Z,8.05
2023-12-12T19:59:38.308Z,5.30
2023-12-12T20:03:20.689Z,4.22
2023-12-12T20:07:02.576Z,8.23
2023-12-12T20:10:44.438Z,5.70
2023-12-12T20:14:26.711Z,4.15
2023-12-12T20:18:09.961Z,5.60
2023-12-12T20:21:54.153Z,10.10
2023-12-12T20:25:36.049Z,6.28
2023-12-12T20:29:17.904Z,8.52
2023-12-12T20:32:59.805Z,10.27
2023-12-12T20:36:41.696Z,10.50
2023-12-12T20:40:24.022Z,8.18
2023-12-12T20:44:06.377Z,10.02
2023-12-12T20:47:48.381Z,13.65
2023-12-12T20:51:32.586Z,8.70
2023-12-12T20:55:14.564Z,12.25
2023-12-12T21:03:18.699Z,14.77
2023-12-12T21:07:00.620Z,14.65
2023-12-12T21:10:42.513Z,19.25
2023-12-12T21:14:24.325Z,12.38
2023-12-12T21:18:07.052Z,12.70
2023-12-12T21:21:49.109Z,13.15
2023-12-12T21:25:31.014Z,10.27
2023-12-12T21:29:14.897Z,10.23
2023-12-12T21:32:57.186Z,11.30
2023-12-12T21:36:39.165Z,15.43
2023-12-12T21:40:21.154Z,16.15
2023-12-12T21:44:02.996Z,12.05
2023-12-12T21:47:44.919Z,15.32
2023-12-12T21:51:26.750Z,10.30
2023-12-12T21:55:09.953Z,14.50
2023-12-12T21:58:56.087Z,16.05
2023-12-12T22:02:39.813Z,12.88
2023-12-12T22:06:21.663Z,9.85
2023-12-12T22:10:04.089Z,13.25
2023-12-12T22:13:47.304Z,12.43
2023-12-12T22:17:29.298Z,8.80
2023-12-12T22:21:11.273Z,11.27
2023-12-12T22:24:53.374Z,10.48
2023-12-12T22:28:36.683Z,14.82
2023-12-12T22:32:18.541Z,9.57
2023-12-12T22:36:00.714Z,11.25
2023-12-12T22:39:42.632Z,7.05
2023-12-12T22:43:24.601Z,8.07
2023-12-12T22:47:06.642Z,9.45
2023-12-12T22:50:48.655Z,9.70
2023-12-12T22:54:30.425Z,8.10
2023-12-12T22:58:12.283Z,8.45
2023-12-12T23:01:54.078Z,9.68
2023-12-12T23:05:36.087Z,10.50
2023-12-12T23:09:22.979Z,7.47
2023-12-12T23:13:04.849Z,8.60
2023-12-12T23:16:47.334Z,9.65
2023-12-12T23:20:29.205Z,8.35
2023-12-12T23:24:11.103Z,7.40
2023-12-12T23:27:53.102Z,9.73
2023-12-12T23:31:39.542Z,6.93
2023-12-12T23:35:21.601Z,6.00
2023-12-12T23:39:03.821Z,6.90
2023-12-12T23:42:45.798Z,7.70
2023-12-12T23:46:27.627Z,4.15
2023-12-12T23:50:10.200Z,8.35
2023-12-12T23:53:56.971Z,7.35
2023-12-12T23:57:38.948Z,10.65
